createdAt,value
2022-11-24T00:01:31.345Z,0.54
2022-11-24T00:04:03.220Z,0.53
2022-11-24T00:06:34.426Z,0.49
2022-11-24T00:09:04.787Z,0.45
2022-11-24T00:11:36.717Z,0.44
2022-11-24T00:14:06.499Z,0.44
2022-11-24T00:16:37.072Z,0.42
2022-11-24T00:19:09.555Z,0.41
2022-11-24T00:21:39.236Z,0.37
2022-11-24T00:24:07.937Z,0.35
2022-11-24T00:26:40.021Z,0.32
2022-11-24T00:29:09.934Z,0.29
2022-11-24T00:31:40.719Z,0.27
2022-11-24T00:34:14.181Z,0.23
2022-11-24T00:36:43.273Z,0.19
2022-11-24T00:39:13.813Z,0.18
2022-11-24T00:41:43.902Z,0.17
2022-11-24T00:44:24.952Z,0.16
2022-11-24T00:46:53.714Z,0.14
2022-11-24T00:49:22.345Z,0.15
2022-11-24T00:51:51.498Z,0.17
2022-11-24T00:54:20.168Z,0.16
2022-11-24T00:56:48.749Z,0.18
2022-11-24T00:59:17.326Z,0.18
2022-11-24T01:01:45.892Z,0.19
2022-11-24T01:04:15.377Z,0.22
2022-11-24T01:06:43.901Z,0.23
2022-11-24T01:09:12.487Z,0.28
2022-11-24T01:11:59.909Z,0.31
2022-11-24T01:14:29.609Z,0.31
2022-11-24T01:16:58.612Z,0.30
2022-11-24T01:19:27.390Z,0.25
2022-11-24T01:21:55.925Z,0.21
2022-11-24T01:24:24.579Z,0.19
2022-11-24T01:26:53.117Z,0.17
2022-11-24T01:29:21.806Z,0.16
2022-11-24T01:31:50.310Z,0.16
2022-11-24T01:34:18.914Z,0.14
2022-11-24T01:36:47.495Z,0.13
2022-11-24T01:39:16.151Z,0.12
2022-11-24T01:41:44.777Z,0.11
2022-11-24T01:44:42.781Z,0.11
2022-11-24T01:47:35.715Z,0.10
2022-11-24T01:50:06.175Z,0.09
2022-11-24T01:52:47.358Z,0.09
2022-11-24T01:55:20.986Z,0.09
2022-11-24T01:57:58.069Z,0.07
2022-11-24T02:00:26.742Z,0.05
2022-11-24T02:02:55.592Z,0.02
2022-11-24T02:05:35.672Z,0.05
2022-11-24T02:08:06.621Z,0.09
2022-11-24T02:10:36.493Z,0.11
2022-11-24T02:13:05.696Z,0.13
2022-11-24T02:15:35.741Z,0.15
2022-11-24T02:18:04.630Z,0.18
2022-11-24T02:20:34.591Z,0.20
2022-11-24T02:23:28.829Z,0.22
2022-11-24T02:26:11.403Z,0.22
2022-11-24T02:28:40.379Z,0.21
2022-11-24T02:31:09.612Z,0.20
2022-11-24T02:33:38.559Z,0.20
2022-11-24T02:36:07.370Z,0.21
2022-11-24T02:38:36.551Z,0.21
2022-11-24T02:41:13.437Z,0.20
2022-11-24T02:43:51.092Z,0.22
2022-11-24T02:46:19.505Z,0.24
2022-11-24T02:48:48.304Z,0.22
2022-11-24T02:51:16.795Z,0.26
2022-11-24T02:53:45.465Z,0.32
2022-11-24T02:56:13.879Z,0.37
2022-11-24T02:58:42.361Z,0.37
2022-11-24T03:01:10.869Z,0.36
2022-11-24T03:03:39.576Z,0.38
2022-11-24T03:06:07.975Z,0.40
2022-11-24T03:08:36.325Z,0.43
2022-11-24T03:11:05.012Z,0.44
2022-11-24T03:13:33.964Z,0.41
2022-11-24T03:16:02.522Z,0.38
2022-11-24T03:18:30.949Z,0.41
2022-11-24T03:21:00.462Z,0.42
2022-11-24T03:23:29.007Z,0.44
2022-11-24T03:26:08.346Z,0.45
2022-11-24T03:28:37.130Z,0.46
2022-11-24T03:31:06.653Z,0.43
2022-11-24T03:33:35.962Z,0.41
2022-11-24T03:36:06.072Z,0.40
2022-11-24T03:38:34.552Z,0.40
2022-11-24T03:41:03.029Z,0.46
2022-11-24T03:43:31.521Z,0.56
2022-11-24T03:46:00.034Z,0.57
2022-11-24T03:48:28.683Z,0.59
2022-11-24T03:51:01.373Z,0.59
2022-11-24T03:53:32.018Z,0.60
2022-11-24T03:56:02.388Z,0.63
2022-11-24T03:58:31.417Z,0.65
2022-11-24T04:00:59.918Z,0.66
2022-11-24T04:03:28.783Z,0.72
2022-11-24T04:05:57.258Z,0.77
2022-11-24T04:08:25.728Z,0.77
2022-11-24T04:10:55.018Z,0.71
2022-11-24T04:13:26.281Z,0.64
2022-11-24T04:15:54.889Z,0.61
2022-11-24T04:18:23.465Z,0.58
2022-11-24T04:20:52.606Z,0.56
2022-11-24T04:23:20.992Z,0.60
2022-11-24T04:25:50.186Z,0.62
2022-11-24T04:28:19.299Z,0.60
2022-11-24T04:30:47.805Z,0.57
2022-11-24T04:33:16.185Z,0.54
2022-11-24T04:35:44.628Z,0.59
2022-11-24T04:38:12.976Z,0.64
2022-11-24T04:41:04.906Z,0.67
2022-11-24T04:44:01.910Z,0.67
2022-11-24T04:46:30.333Z,0.70
2022-11-24T04:48:58.880Z,0.68
2022-11-24T04:51:27.329Z,0.68
2022-11-24T04:53:55.809Z,0.74
2022-11-24T04:56:24.237Z,0.83
2022-11-24T04:58:52.637Z,0.93
2022-11-24T05:01:21.029Z,1.04
2022-11-24T05:03:49.498Z,1.10
2022-11-24T05:06:17.915Z,1.12
2022-11-24T05:08:53.200Z,1.11
2022-11-24T05:11:21.662Z,1.18
2022-11-24T05:13:50.059Z,1.20
2022-11-24T05:16:18.627Z,1.12
2022-11-24T05:18:47.042Z,0.99
2022-11-24T05:21:15.550Z,0.98
2022-11-24T05:23:43.930Z,1.00
2022-11-24T05:26:12.427Z,1.03
2022-11-24T05:28:40.825Z,1.07
2022-11-24T05:31:09.358Z,1.08
2022-11-24T05:33:38.577Z,1.07
2022-11-24T05:36:07.483Z,1.02
2022-11-24T05:38:35.952Z,0.95
2022-11-24T05:41:06.303Z,0.89
2022-11-24T05:43:53.684Z,0.83
2022-11-24T05:46:22.130Z,0.77
2022-11-24T05:48:50.599Z,0.78
2022-11-24T05:51:19.133Z,0.78
2022-11-24T05:53:47.497Z,0.76
2022-11-24T05:56:15.950Z,0.72
2022-11-24T05:58:44.391Z,0.64
2022-11-24T06:01:12.768Z,0.59
2022-11-24T06:03:41.838Z,0.52
2022-11-24T06:06:11.074Z,0.50
2022-11-24T06:08:39.670Z,0.49
2022-11-24T06:11:19.942Z,0.49
2022-11-24T06:13:51.745Z,0.47
2022-11-24T06:16:20.642Z,0.47
2022-11-24T06:18:49.147Z,0.47
2022-11-24T06:21:17.618Z,0.41
2022-11-24T06:23:49.633Z,0.37
2022-11-24T06:26:21.086Z,0.37
2022-11-24T06:28:49.467Z,0.33
2022-11-24T06:31:18.025Z,0.32
2022-11-24T06:33:47.236Z,0.30
2022-11-24T06:36:15.838Z,0.31
2022-11-24T06:38:44.267Z,0.28
2022-11-24T06:41:15.010Z,0.28
2022-11-24T06:43:43.544Z,0.30
2022-11-24T06:46:12.668Z,0.30
2022-11-24T06:48:41.267Z,0.29
2022-11-24T06:51:13.415Z,0.24
2022-11-24T06:53:41.876Z,0.22
2022-11-24T06:56:16.163Z,0.27
2022-11-24T06:58:47.822Z,0.28
2022-11-24T07:01:21.999Z,0.33
2022-11-24T07:03:51.703Z,0.36
2022-11-24T07:06:21.609Z,0.37
2022-11-24T07:08:51.174Z,0.35
2022-11-24T07:11:22.882Z,0.29
2022-11-24T07:13:55.130Z,0.28
2022-11-24T07:16:29.058Z,0.30
2022-11-24T07:18:58.330Z,0.36
2022-11-24T07:21:28.138Z,0.36
2022-11-24T07:23:58.075Z,0.35
2022-11-24T07:26:27.314Z,0.36
2022-11-24T07:28:55.879Z,0.35
2022-11-24T07:31:27.311Z,0.35
2022-11-24T07:33:55.949Z,0.43
2022-11-24T07:36:25.189Z,0.53
2022-11-24T07:38:53.588Z,0.59
2022-11-24T07:41:22.394Z,0.60
2022-11-24T07:43:51.997Z,0.61
2022-11-24T07:46:21.014Z,0.65
2022-11-24T07:48:49.567Z,0.71
2022-11-24T07:51:18.009Z,0.76
2022-11-24T07:53:46.649Z,0.76
2022-11-24T07:56:15.298Z,0.79
2022-11-24T07:58:45.966Z,0.86
2022-11-24T08:01:18.496Z,0.80
2022-11-24T08:03:47.658Z,0.70
2022-11-24T08:06:25.067Z,0.63
2022-11-24T08:08:57.317Z,0.60
2022-11-24T08:11:26.579Z,0.58
2022-11-24T08:13:55.562Z,0.62
2022-11-24T08:16:24.315Z,0.63
2022-11-24T08:18:55.038Z,0.56
2022-11-24T08:21:24.307Z,0.52
2022-11-24T08:23:57.066Z,0.49
2022-11-24T08:26:26.420Z,0.50
2022-11-24T08:28:58.028Z,0.58
2022-11-24T08:31:33.788Z,0.74
2022-11-24T08:34:04.046Z,0.86
2022-11-24T08:36:33.532Z,0.86
2022-11-24T08:39:03.058Z,0.84
2022-11-24T08:41:31.831Z,0.85
2022-11-24T08:44:00.318Z,0.82
2022-11-24T08:46:29.035Z,0.80
2022-11-24T08:48:57.548Z,0.77
2022-11-24T08:51:27.470Z,0.78
2022-11-24T08:54:01.586Z,0.81
2022-11-24T08:56:32.785Z,0.85
2022-11-24T08:59:01.231Z,0.88
2022-11-24T09:01:30.071Z,0.94
2022-11-24T09:03:58.738Z,0.96
2022-11-24T09:06:32.521Z,0.98
2022-11-24T09:09:01.118Z,0.91
2022-11-24T09:11:29.637Z,0.86
2022-11-24T09:13:58.329Z,0.77
2022-11-24T09:16:29.261Z,0.70
2022-11-24T09:19:00.453Z,0.66
2022-11-24T09:21:29.903Z,0.65
2022-11-24T09:23:58.722Z,0.66
2022-11-24T09:26:30.030Z,0.70
2022-11-24T09:29:00.306Z,0.77
2022-11-24T09:31:34.784Z,0.85
2022-11-24T09:34:06.109Z,0.89
2022-11-24T09:36:34.622Z,1.02
2022-11-24T09:39:03.895Z,1.11
2022-11-24T09:42:09.942Z,1.17
2022-11-24T09:45:10.091Z,1.17
2022-11-24T09:47:51.459Z,1.12
2022-11-24T09:50:26.031Z,1.11
2022-11-24T09:53:04.034Z,1.11
2022-11-24T09:55:55.243Z,1.12
2022-11-24T09:58:57.456Z,1.08
2022-11-24T10:01:37.475Z,1.10
2022-11-24T10:04:16.883Z,1.06
2022-11-24T10:07:04.265Z,1.08
2022-11-24T10:09:44.424Z,1.07
2022-11-24T10:12:54.254Z,1.04
2022-11-24T10:15:45.851Z,1.05
2022-11-24T10:18:49.519Z,1.09
2022-11-24T10:21:36.186Z,1.11
2022-11-24T10:24:43.377Z,1.11
2022-11-24T10:27:19.101Z,1.12
2022-11-24T10:29:51.924Z,1.17
2022-11-24T10:32:44.377Z,1.30
2022-11-24T10:35:17.661Z,1.36
2022-11-24T10:38:18.339Z,1.41
2022-11-24T10:40:57.508Z,1.58
2022-11-24T10:43:30.709Z,1.75
2022-11-24T10:46:24.607Z,1.86
2022-11-24T10:49:05.345Z,1.96
2022-11-24T10:51:42.430Z,2.03
2022-11-24T10:54:17.035Z,2.06
2022-11-24T10:56:47.734Z,2.12
2022-11-24T10:59:24.861Z,2.18
2022-11-24T11:01:54.122Z,2.24
2022-11-24T11:04:35.364Z,2.29
2022-11-24T11:07:23.210Z,2.33
2022-11-24T11:10:11.918Z,2.32
2022-11-24T11:12:44.590Z,2.31
2022-11-24T11:15:32.264Z,2.35
2022-11-24T11:18:01.647Z,2.37
2022-11-24T11:20:32.965Z,2.27
2022-11-24T11:23:14.412Z,2.26
2022-11-24T11:25:43.970Z,2.29
2022-11-24T11:28:18.877Z,2.34
2022-11-24T11:31:21.703Z,2.41
2022-11-24T11:34:07.361Z,2.41
2022-11-24T11:36:51.871Z,2.32
2022-11-24T11:39:36.108Z,2.28
2022-11-24T11:42:04.353Z,2.33
2022-11-24T11:44:50.205Z,2.38
2022-11-24T11:47:33.804Z,2.43
2022-11-24T11:50:03.012Z,2.44
2022-11-24T11:52:48.196Z,2.46
2022-11-24T11:55:35.357Z,2.46
2022-11-24T11:58:36.326Z,2.49
2022-11-24T12:01:57.480Z,2.55
2022-11-24T12:04:58.584Z,2.51
2022-11-24T12:07:45.800Z,2.51
2022-11-24T12:10:41.866Z,2.54
2022-11-24T12:13:22.278Z,2.59
2022-11-24T12:15:55.182Z,2.58
2022-11-24T12:19:30.728Z,2.61
2022-11-24T12:22:21.948Z,2.64
2022-11-24T12:25:01.053Z,2.72
2022-11-24T12:28:04.252Z,2.75
2022-11-24T12:30:58.428Z,2.78
2022-11-24T12:34:01.333Z,2.80
2022-11-24T12:36:52.809Z,2.83
2022-11-24T12:39:28.191Z,2.84
2022-11-24T12:42:12.257Z,2.84
2022-11-24T12:44:44.652Z,2.73
2022-11-24T12:47:25.707Z,2.70
2022-11-24T12:50:13.607Z,2.71
2022-11-24T12:52:48.426Z,2.73
2022-11-24T12:55:23.529Z,2.73
2022-11-24T12:58:13.607Z,2.74
2022-11-24T13:01:14.633Z,2.72
2022-11-24T13:04:10.940Z,2.69
2022-11-24T13:07:18.429Z,2.65
2022-11-24T13:10:46.514Z,2.43
2022-11-24T13:13:14.959Z,2.20
2022-11-24T13:16:34.777Z,2.08
2022-11-24T13:19:14.116Z,1.91
2022-11-24T13:21:53.689Z,1.80
2022-11-24T13:24:25.979Z,1.77
2022-11-24T13:27:16.243Z,1.82
2022-11-24T13:29:46.909Z,1.81
2022-11-24T13:32:15.860Z,1.79
2022-11-24T13:34:46.017Z,1.77
2022-11-24T13:37:29.080Z,1.73
2022-11-24T13:40:13.735Z,1.68
2022-11-24T13:43:01.708Z,1.65
2022-11-24T13:45:55.032Z,1.71
2022-11-24T13:48:47.158Z,1.82
2022-11-24T13:51:23.745Z,1.87
2022-11-24T13:53:55.221Z,1.97
2022-11-24T13:56:26.760Z,2.06
2022-11-24T13:59:17.793Z,2.11
2022-11-24T14:01:56.473Z,2.16
2022-11-24T14:07:17.190Z,2.19
2022-11-24T14:09:50.347Z,2.21
2022-11-24T14:12:21.764Z,2.20
2022-11-24T14:14:52.782Z,2.26
2022-11-24T14:17:23.831Z,2.29
2022-11-24T14:19:54.416Z,2.30
2022-11-24T14:22:41.692Z,2.28
2022-11-24T14:25:30.521Z,2.27
2022-11-24T14:28:00.739Z,2.27
2022-11-24T14:30:29.332Z,2.29
2022-11-24T14:33:00.086Z,2.29
2022-11-24T14:35:30.179Z,2.20
2022-11-24T14:38:00.270Z,2.05
2022-11-24T14:40:50.478Z,2.05
2022-11-24T14:43:28.458Z,2.09
2022-11-24T14:46:10.202Z,2.13
2022-11-24T14:48:38.674Z,2.15
2022-11-24T14:51:25.195Z,2.14
2022-11-24T14:53:58.404Z,2.10
2022-11-24T14:56:34.774Z,2.07
2022-11-24T14:59:04.805Z,2.03
2022-11-24T15:01:35.125Z,1.98
2022-11-24T15:04:32.514Z,2.02
2022-11-24T15:07:26.116Z,2.09
2022-11-24T15:10:00.348Z,2.14
2022-11-24T15:12:34.925Z,2.13
2022-11-24T15:15:15.278Z,2.10
2022-11-24T15:18:01.643Z,2.13
2022-11-24T15:20:35.639Z,2.11
2022-11-24T15:23:23.262Z,2.10
2022-11-24T15:25:56.591Z,2.10
2022-11-24T15:28:28.224Z,2.06
2022-11-24T15:31:01.543Z,2.00
2022-11-24T15:33:31.316Z,1.96
2022-11-24T15:36:00.716Z,1.95
2022-11-24T15:38:29.099Z,1.95
2022-11-24T15:41:00.471Z,1.94
2022-11-24T15:43:40.720Z,1.92
2022-11-24T15:46:10.210Z,1.86
2022-11-24T15:48:38.792Z,1.87
2022-11-24T15:51:11.725Z,1.90
2022-11-24T15:53:44.313Z,1.94
2022-11-24T15:56:19.541Z,2.00
2022-11-24T15:58:48.874Z,2.05
2022-11-24T16:01:17.405Z,2.07
2022-11-24T16:03:47.831Z,2.09
2022-11-24T16:06:24.524Z,2.08
2022-11-24T16:08:54.663Z,1.94
2022-11-24T16:11:23.854Z,1.83
2022-11-24T16:13:54.351Z,1.73
2022-11-24T16:16:25.635Z,1.65
2022-11-24T16:18:54.237Z,1.57
2022-11-24T16:21:23.496Z,1.52
2022-11-24T16:23:52.188Z,1.47
2022-11-24T16:26:21.016Z,1.46
2022-11-24T16:28:49.621Z,1.43
2022-11-24T16:31:20.152Z,1.41
2022-11-24T16:33:48.604Z,1.41
2022-11-24T16:36:17.066Z,1.45
2022-11-24T16:38:46.151Z,1.49
2022-11-24T16:41:15.061Z,1.50
2022-11-24T16:43:43.620Z,1.50
2022-11-24T16:46:22.291Z,1.48
2022-11-24T16:48:53.708Z,1.52
2022-11-24T16:51:24.199Z,1.56
2022-11-24T16:54:02.485Z,1.54
2022-11-24T16:56:32.348Z,1.54
2022-11-24T16:59:01.896Z,1.58
2022-11-24T17:01:30.728Z,1.68
2022-11-24T17:04:00.473Z,1.78
2022-11-24T17:06:29.774Z,1.88
2022-11-24T17:08:58.622Z,1.96
2022-11-24T17:11:28.975Z,2.02
2022-11-24T17:14:00.665Z,2.07
2022-11-24T17:16:30.675Z,2.09
2022-11-24T17:19:00.416Z,2.09
2022-11-24T17:21:29.163Z,2.12
2022-11-24T17:24:01.563Z,2.13
2022-11-24T17:26:30.417Z,2.13
2022-11-24T17:28:59.987Z,2.11
2022-11-24T17:31:37.856Z,2.12
2022-11-24T17:34:08.002Z,2.12
2022-11-24T17:36:42.298Z,2.13
2022-11-24T17:39:14.494Z,2.15
2022-11-24T17:41:43.517Z,2.16
2022-11-24T17:44:13.635Z,2.18
2022-11-24T17:46:43.723Z,2.21
2022-11-24T17:49:16.015Z,2.21
2022-11-24T17:51:46.702Z,2.20
2022-11-24T17:57:07.106Z,2.15
2022-11-24T17:59:38.275Z,2.17
2022-11-24T18:02:10.646Z,2.22
2022-11-24T18:04:39.943Z,2.24
2022-11-24T18:07:08.611Z,2.24
2022-11-24T18:09:38.778Z,2.25
2022-11-24T18:12:08.287Z,2.16
2022-11-24T18:14:39.353Z,2.10
2022-11-24T18:17:11.256Z,2.12
2022-11-24T18:19:40.786Z,2.13
2022-11-24T18:22:10.241Z,2.14
2022-11-24T18:24:39.676Z,2.09
2022-11-24T18:27:09.295Z,2.07
2022-11-24T18:29:38.573Z,2.08
2022-11-24T18:32:08.925Z,2.06
2022-11-24T18:34:40.831Z,2.08
2022-11-24T18:37:14.113Z,2.12
2022-11-24T18:39:43.783Z,2.18
2022-11-24T18:42:18.561Z,2.19
2022-11-24T18:44:52.566Z,2.19
2022-11-24T18:47:23.840Z,2.21
2022-11-24T18:49:52.995Z,2.22
2022-11-24T18:52:23.852Z,2.25
2022-11-24T18:54:54.830Z,2.23
2022-11-24T18:57:24.182Z,2.11
2022-11-24T18:59:54.208Z,2.02
2022-11-24T19:02:24.894Z,1.98
2022-11-24T19:04:54.582Z,1.97
2022-11-24T19:07:23.603Z,2.02
2022-11-24T19:09:53.107Z,2.07
2022-11-24T19:12:22.860Z,2.12
2022-11-24T19:14:51.997Z,2.15
2022-11-24T19:17:26.169Z,2.16
2022-11-24T19:19:55.775Z,2.15
2022-11-24T19:22:26.551Z,2.11
2022-11-24T19:24:56.387Z,2.07
2022-11-24T19:27:26.093Z,2.04
2022-11-24T19:29:55.883Z,2.06
2022-11-24T19:32:26.080Z,2.08
2022-11-24T19:34:55.846Z,2.08
2022-11-24T19:37:25.854Z,2.06
2022-11-24T19:39:56.677Z,2.03
2022-11-24T19:42:28.867Z,2.00
2022-11-24T19:45:04.032Z,1.98
2022-11-24T19:47:34.706Z,1.93
2022-11-24T19:50:10.212Z,1.88
2022-11-24T19:52:39.750Z,1.85
2022-11-24T19:55:09.698Z,1.88
2022-11-24T19:57:40.430Z,1.90
2022-11-24T20:00:15.445Z,1.90
2022-11-24T20:02:52.242Z,1.89
2022-11-24T20:05:28.413Z,1.88
2022-11-24T20:07:58.398Z,1.85
2022-11-24T20:23:00.290Z,1.76
2022-11-24T20:25:29.775Z,1.74
2022-11-24T20:31:11.178Z,1.76
2022-11-24T20:33:47.344Z,1.79
2022-11-24T20:42:40.623Z,1.70
2022-11-24T20:45:16.720Z,1.63
2022-11-24T20:47:51.292Z,1.62
2022-11-24T20:50:27.347Z,1.60
2022-11-24T20:53:01.916Z,1.61
2022-11-24T20:55:37.010Z,1.67
2022-11-24T20:58:05.930Z,1.68
2022-11-24T21:00:40.605Z,1.73
2022-11-24T21:03:16.955Z,1.73
2022-11-24T21:05:56.794Z,1.71
2022-11-24T21:08:25.953Z,1.66
2022-11-24T21:11:02.822Z,1.64
2022-11-24T21:13:35.853Z,1.57
2022-11-24T21:16:15.413Z,1.49
2022-11-24T21:18:52.746Z,1.46
2022-11-24T21:21:34.753Z,1.46
2022-11-24T21:24:15.240Z,1.44
2022-11-24T21:26:48.547Z,1.45
2022-11-24T21:29:19.628Z,1.45
2022-11-24T21:31:53.122Z,1.51
2022-11-24T21:34:28.412Z,1.61
2022-11-24T21:36:56.924Z,1.76
2022-11-24T21:39:25.455Z,1.87
2022-11-24T21:41:54.144Z,1.99
2022-11-24T21:44:39.185Z,2.09
2022-11-24T21:47:07.553Z,2.19
2022-11-24T21:49:36.132Z,2.23
2022-11-24T21:52:04.793Z,2.27
2022-11-24T21:54:35.887Z,2.30
2022-11-24T21:57:06.026Z,2.33
2022-11-24T21:59:35.742Z,2.35
2022-11-24T22:02:08.770Z,2.36
2022-11-24T22:04:38.707Z,2.37
2022-11-24T22:07:07.329Z,2.36
2022-11-24T22:09:35.741Z,2.33
2022-11-24T22:12:04.475Z,2.32
2022-11-24T22:14:36.178Z,2.33
2022-11-24T22:17:08.988Z,2.30
2022-11-24T22:19:37.464Z,2.33
2022-11-24T22:22:05.998Z,2.31
2022-11-24T22:24:34.467Z,2.30
2022-11-24T22:27:03.400Z,2.35
2022-11-24T22:29:31.847Z,2.38
2022-11-24T22:32:00.241Z,2.35
2022-11-24T22:34:29.936Z,2.36
2022-11-24T22:36:58.442Z,2.40
2022-11-24T22:39:26.881Z,2.43
2022-11-24T22:41:55.347Z,2.43
2022-11-24T22:44:49.445Z,2.44
2022-11-24T22:47:17.865Z,2.47
2022-11-24T22:49:46.217Z,2.48
2022-11-24T22:52:15.455Z,2.46
2022-11-24T22:54:43.888Z,2.44
2022-11-24T22:57:12.255Z,2.47
2022-11-24T22:59:40.612Z,2.48
2022-11-24T23:02:09.181Z,2.47
2022-11-24T23:04:37.752Z,2.44
2022-11-24T23:07:06.350Z,2.40
2022-11-24T23:09:34.683Z,2.39
2022-11-24T23:12:03.152Z,2.42
2022-11-24T23:14:31.571Z,2.44
2022-11-24T23:17:01.058Z,2.45
2022-11-24T23:19:29.428Z,2.46
2022-11-24T23:21:57.874Z,2.49
2022-11-24T23:24:26.230Z,2.50
2022-11-24T23:26:54.575Z,2.52
2022-11-24T23:29:22.955Z,2.55
2022-11-24T23:31:51.419Z,2.57
2022-11-24T23:34:19.828Z,2.55
2022-11-24T23:36:48.264Z,2.56
2022-11-24T23:39:16.775Z,2.58
2022-11-24T23:41:45.214Z,2.59
2022-11-24T23:44:39.339Z,2.61
2022-11-24T23:47:07.702Z,2.58
2022-11-24T23:49:36.208Z,2.58
2022-11-24T23:52:04.934Z,2.51
2022-11-24T23:54:33.544Z,2.44
2022-11-24T23:57:02.182Z,2.41
2022-11-24T23:59:30.529Z,2.36
